aviador You're here:

KBWW Decoded Metar

in
Report Time2018-01-18 13:55:00
UTC Time2018-01-18 13:56:16
Flight Rules vfr VFR
Wind250° at 14 kt
W.Decomp.*RWY 31: 7.0 kt HW 12.1 kt LCW
W.Rank250° ranks 17
Current wind is above 250° avg. (10.2)
Visibility9999 m
Phenomena:N/A
Clouds:N/A
Expected CloudBase > 2,400 ft AGL from Temp-Dew spread
CeilingNone
Temp00°C
Dew Point-6°C (64% RH)
AAT-7.8°C
QNH1006 hPa
Raw Report
METAR KBWW 181355Z AUTO 25014KT 10SM CLR M00/M06 A2972 RMK AO2=

Extra information for KBWW:More info

Social comments